sensor_id;sensor_type;location;lat;lon;timestamp;pressure;altitude;pressure_sealevel;temperature;humidity
8366;BME280;4220;42.502;24.188;2023-02-19T00:01:30;95444.34;;;7.09;70.64
8366;BME280;4220;42.502;24.188;2023-02-19T00:03:59;95419.56;;;7.04;70.46
8366;BME280;4220;42.502;24.188;2023-02-19T00:06:28;95438.22;;;7.02;70.81
8366;BME280;4220;42.502;24.188;2023-02-19T00:08:55;95392.19;;;6.77;71.05
8366;BME280;4220;42.502;24.188;2023-02-19T00:11:23;95426.34;;;6.92;72.06
8366;BME280;4220;42.502;24.188;2023-02-19T00:13:53;95421.50;;;6.95;72.10
8366;BME280;4220;42.502;24.188;2023-02-19T00:16:24;95405.88;;;6.94;71.53
8366;BME280;4220;42.502;24.188;2023-02-19T00:18:53;95422.28;;;6.89;72.34
8366;BME280;4220;42.502;24.188;2023-02-19T00:21:21;95422.16;;;6.76;73.45
8366;BME280;4220;42.502;24.188;2023-02-19T00:23:48;95413.59;;;6.68;74.51
8366;BME280;4220;42.502;24.188;2023-02-19T00:26:16;95410.75;;;6.69;75.11
8366;BME280;4220;42.502;24.188;2023-02-19T00:28:43;95391.06;;;6.65;75.07
8366;BME280;4220;42.502;24.188;2023-02-19T00:31:14;95352.56;;;6.43;74.95
8366;BME280;4220;42.502;24.188;2023-02-19T00:33:44;95406.06;;;6.65;75.51
8366;BME280;4220;42.502;24.188;2023-02-19T00:36:12;95392.75;;;6.73;74.94
8366;BME280;4220;42.502;24.188;2023-02-19T00:38:40;95395.19;;;6.74;74.51
8366;BME280;4220;42.502;24.188;2023-02-19T00:41:08;95386.13;;;6.83;74.14
8366;BME280;4220;42.502;24.188;2023-02-19T00:43:45;95354.81;;;6.74;72.77
8366;BME280;4220;42.502;24.188;2023-02-19T00:46:13;95390.50;;;6.97;72.61
8366;BME280;4220;42.502;24.188;2023-02-19T00:48:40;95395.53;;;6.92;72.91
8366;BME280;4220;42.502;24.188;2023-02-19T00:51:08;95401.16;;;6.83;74.00
8366;BME280;4220;42.502;24.188;2023-02-19T00:53:35;95393.28;;;6.89;73.64
8366;BME280;4220;42.502;24.188;2023-02-19T00:56:02;95392.75;;;7.00;71.85
8366;BME280;4220;42.502;24.188;2023-02-19T00:58:29;95397.44;;;7.33;69.07
8366;BME280;4220;42.502;24.188;2023-02-19T01:00:55;95389.94;;;7.77;65.91
8366;BME280;4220;42.502;24.188;2023-02-19T01:03:23;95392.22;;;8.34;62.59
8366;BME280;4220;42.502;24.188;2023-02-19T01:05:51;95400.13;;;9.58;56.46
8366;BME280;4220;42.502;24.188;2023-02-19T01:08:19;95380.22;;;10.44;52.61
8366;BME280;4220;42.502;24.188;2023-02-19T01:10:46;95381.66;;;11.03;50.34
8366;BME280;4220;42.502;24.188;2023-02-19T01:13:13;95374.53;;;11.46;49.02
8366;BME280;4220;42.502;24.188;2023-02-19T01:15:40;95376.38;;;11.64;48.31
8366;BME280;4220;42.502;24.188;2023-02-19T01:18:07;95341.41;;;11.67;47.39
8366;BME280;4220;42.502;24.188;2023-02-19T01:20:34;95386.91;;;11.95;47.33
8366;BME280;4220;42.502;24.188;2023-02-19T01:23:03;95379.69;;;11.84;47.61
8366;BME280;4220;42.502;24.188;2023-02-19T01:25:31;95377.38;;;11.69;48.12
8366;BME280;4220;42.502;24.188;2023-02-19T01:27:58;95365.06;;;11.50;48.36
8366;BME280;4220;42.502;24.188;2023-02-19T01:30:25;95375.19;;;11.42;48.56
8366;BME280;4220;42.502;24.188;2023-02-19T01:32:52;95374.97;;;11.43;48.53
8366;BME280;4220;42.502;24.188;2023-02-19T01:35:19;95372.72;;;11.40;48.71
8366;BME280;4220;42.502;24.188;2023-02-19T01:37:47;95378.13;;;11.34;48.71
8366;BME280;4220;42.502;24.188;2023-02-19T01:40:14;95373.47;;;11.29;48.60
8366;BME280;4220;42.502;24.188;2023-02-19T01:42:43;95322.28;;;11.22;48.35
8366;BME280;4220;42.502;24.188;2023-02-19T01:45:18;95373.44;;;11.54;47.82
8366;BME280;4220;42.502;24.188;2023-02-19T01:47:50;95367.72;;;11.93;46.85
8366;BME280;4220;42.502;24.188;2023-02-19T01:50:19;95366.53;;;11.89;47.26
8366;BME280;4220;42.502;24.188;2023-02-19T01:52:46;95380.06;;;11.63;47.46
8366;BME280;4220;42.502;24.188;2023-02-19T01:55:13;95374.75;;;11.45;47.88
8366;BME280;4220;42.502;24.188;2023-02-19T01:57:44;95334.50;;;11.05;48.43
8366;BME280;4220;42.502;24.188;2023-02-19T02:00:14;95369.25;;;11.22;48.58
8366;BME280;4220;42.502;24.188;2023-02-19T02:02:44;95380.47;;;11.24;48.57
8366;BME280;4220;42.502;24.188;2023-02-19T02:05:20;95379.97;;;11.08;49.16
8366;BME280;4220;42.502;24.188;2023-02-19T02:07:49;95382.75;;;10.95;49.36
8366;BME280;4220;42.502;24.188;2023-02-19T02:10:34;95386.50;;;10.81;50.14
8366;BME280;4220;42.502;24.188;2023-02-19T02:13:02;95389.06;;;10.70;50.28
8366;BME280;4220;42.502;24.188;2023-02-19T02:15:44;95383.50;;;11.02;49.49
8366;BME280;4220;42.502;24.188;2023-02-19T02:18:25;95391.50;;;10.96;49.72
8366;BME280;4220;42.502;24.188;2023-02-19T02:24:11;95376.28;;;10.85;50.06
8366;BME280;4220;42.502;24.188;2023-02-19T02:26:57;95374.03;;;10.88;49.68
8366;BME280;4220;42.502;24.188;2023-02-19T02:30:04;95386.69;;;10.86;50.10
8366;BME280;4220;42.502;24.188;2023-02-19T02:32:38;95381.81;;;10.83;50.31
8366;BME280;4220;42.502;24.188;2023-02-19T02:35:08;95370.00;;;10.79;50.40
8366;BME280;4220;42.502;24.188;2023-02-19T02:37:38;95336.16;;;10.50;50.14
8366;BME280;4220;42.502;24.188;2023-02-19T02:40:08;95388.28;;;10.63;50.48
8366;BME280;4220;42.502;24.188;2023-02-19T02:42:38;95374.25;;;10.56;50.79
8366;BME280;4220;42.502;24.188;2023-02-19T02:45:23;95382.00;;;10.57;50.82
8366;BME280;4220;42.502;24.188;2023-02-19T02:48:20;95373.25;;;10.50;51.28
8366;BME280;4220;42.502;24.188;2023-02-19T02:50:52;95395.34;;;10.44;51.46
8366;BME280;4220;42.502;24.188;2023-02-19T02:53:23;95392.53;;;10.32;51.59
8366;BME280;4220;42.502;24.188;2023-02-19T02:56:09;95380.09;;;10.33;52.04
8366;BME280;4220;42.502;24.188;2023-02-19T02:58:37;95389.50;;;10.29;52.26
8366;BME280;4220;42.502;24.188;2023-02-19T03:01:09;95390.69;;;10.33;51.71
8366;BME280;4220;42.502;24.188;2023-02-19T03:04:00;95376.84;;;10.31;52.09
8366;BME280;4220;42.502;24.188;2023-02-19T03:06:30;95380.75;;;10.28;52.16
8366;BME280;4220;42.502;24.188;2023-02-19T03:09:04;95379.47;;;10.37;51.28
8366;BME280;4220;42.502;24.188;2023-02-19T03:11:33;95374.31;;;10.49;51.79
8366;BME280;4220;42.502;24.188;2023-02-19T03:14:22;95381.81;;;10.52;51.31
8366;BME280;4220;42.502;24.188;2023-02-19T03:17:15;95395.91;;;10.52;51.18
8366;BME280;4220;42.502;24.188;2023-02-19T03:20:06;95389.75;;;10.59;51.30
8366;BME280;4220;42.502;24.188;2023-02-19T03:22:35;95404.44;;;10.61;51.20
8366;BME280;4220;42.502;24.188;2023-02-19T03:25:07;95404.16;;;10.69;50.99
8366;BME280;4220;42.502;24.188;2023-02-19T03:27:53;95398.91;;;10.63;51.13
8366;BME280;4220;42.502;24.188;2023-02-19T03:30:24;95391.75;;;10.63;51.26
8366;BME280;4220;42.502;24.188;2023-02-19T03:32:58;95400.06;;;10.73;51.29
8366;BME280;4220;42.502;24.188;2023-02-19T03:35:29;95397.75;;;10.83;50.86
8366;BME280;4220;42.502;24.188;2023-02-19T03:38:01;95379.50;;;10.69;50.69
8366;BME280;4220;42.502;24.188;2023-02-19T03:40:34;95411.13;;;10.95;50.01
8366;BME280;4220;42.502;24.188;2023-02-19T03:43:11;95421.00;;;11.12;49.68
8366;BME280;4220;42.502;24.188;2023-02-19T03:45:47;95420.66;;;11.27;49.50
8366;BME280;4220;42.502;24.188;2023-02-19T03:48:24;95421.16;;;11.18;49.70
8366;BME280;4220;42.502;24.188;2023-02-19T03:51:01;95436.09;;;11.12;50.29
8366;BME280;4220;42.502;24.188;2023-02-19T03:53:34;95433.88;;;11.09;49.73
8366;BME280;4220;42.502;24.188;2023-02-19T03:56:08;95437.94;;;11.11;49.73
8366;BME280;4220;42.502;24.188;2023-02-19T03:58:43;95435.63;;;11.22;49.25
8366;BME280;4220;42.502;24.188;2023-02-19T04:01:19;95447.88;;;11.47;48.24
8366;BME280;4220;42.502;24.188;2023-02-19T04:03:52;95444.72;;;11.57;48.46
8366;BME280;4220;42.502;24.188;2023-02-19T04:06:25;95458.09;;;11.44;48.49
8366;BME280;4220;42.502;24.188;2023-02-19T04:08:55;95460.44;;;11.34;48.90
8366;BME280;4220;42.502;24.188;2023-02-19T04:11:23;95463.97;;;11.28;49.13
8366;BME280;4220;42.502;24.188;2023-02-19T04:13:55;95451.78;;;11.20;49.79
8366;BME280;4220;42.502;24.188;2023-02-19T04:16:27;95450.44;;;11.04;49.94
8366;BME280;4220;42.502;24.188;2023-02-19T04:18:58;95458.81;;;11.08;50.14
8366;BME280;4220;42.502;24.188;2023-02-19T04:21:29;95454.19;;;10.97;50.51
8366;BME280;4220;42.502;24.188;2023-02-19T04:23:58;95463.38;;;10.94;50.77
8366;BME280;4220;42.502;24.188;2023-02-19T04:26:28;95463.78;;;10.91;50.75
8366;BME280;4220;42.502;24.188;2023-02-19T04:28:56;95474.88;;;10.88;50.58
8366;BME280;4220;42.502;24.188;2023-02-19T04:31:23;95475.47;;;10.84;50.75
8366;BME280;4220;42.502;24.188;2023-02-19T04:33:51;95477.16;;;10.78;50.93
8366;BME280;4220;42.502;24.188;2023-02-19T04:36:19;95482.94;;;10.62;51.19
8366;BME280;4220;42.502;24.188;2023-02-19T04:38:46;95478.28;;;10.58;51.38
8366;BME280;4220;42.502;24.188;2023-02-19T04:41:12;95496.72;;;10.46;52.02
8366;BME280;4220;42.502;24.188;2023-02-19T04:43:39;95487.75;;;10.40;52.50
8366;BME280;4220;42.502;24.188;2023-02-19T04:46:06;95492.66;;;10.37;52.42
8366;BME280;4220;42.502;24.188;2023-02-19T04:48:33;95490.00;;;10.37;52.12
8366;BME280;4220;42.502;24.188;2023-02-19T04:51:04;95502.09;;;10.26;52.42
8366;BME280;4220;42.502;24.188;2023-02-19T04:53:32;95491.47;;;10.20;52.56
8366;BME280;4220;42.502;24.188;2023-02-19T04:56:05;95496.00;;;10.13;53.14
8366;BME280;4220;42.502;24.188;2023-02-19T04:58:32;95489.88;;;10.12;53.37
8366;BME280;4220;42.502;24.188;2023-02-19T05:00:59;95450.41;;;9.84;53.53
8366;BME280;4220;42.502;24.188;2023-02-19T05:03:25;95503.72;;;10.08;53.47
8366;BME280;4220;42.502;24.188;2023-02-19T05:05:52;95500.69;;;10.04;53.50
8366;BME280;4220;42.502;24.188;2023-02-19T05:08:19;95507.84;;;9.97;53.79
8366;BME280;4220;42.502;24.188;2023-02-19T05:10:47;95505.78;;;9.99;54.02
8366;BME280;4220;42.502;24.188;2023-02-19T05:13:14;95513.53;;;10.01;54.09
8366;BME280;4220;42.502;24.188;2023-02-19T05:15:41;95503.13;;;9.93;53.76
8366;BME280;4220;42.502;24.188;2023-02-19T05:18:08;95518.63;;;9.96;53.77
8366;BME280;4220;42.502;24.188;2023-02-19T05:20:35;95521.09;;;9.91;54.04
8366;BME280;4220;42.502;24.188;2023-02-19T05:23:02;95479.75;;;9.63;54.77
8366;BME280;4220;42.502;24.188;2023-02-19T05:25:29;95530.25;;;9.88;54.59
8366;BME280;4220;42.502;24.188;2023-02-19T05:27:57;95535.56;;;9.88;54.66
8366;BME280;4220;42.502;24.188;2023-02-19T05:30:38;95548.59;;;9.83;54.90
8366;BME280;4220;42.502;24.188;2023-02-19T05:33:05;95548.59;;;9.83;55.35
8366;BME280;4220;42.502;24.188;2023-02-19T05:35:31;95551.25;;;9.83;55.48
8366;BME280;4220;42.502;24.188;2023-02-19T05:37:58;95556.97;;;9.86;55.22
8366;BME280;4220;42.502;24.188;2023-02-19T05:40:25;95551.06;;;9.84;55.00
8366;BME280;4220;42.502;24.188;2023-02-19T05:42:52;95565.31;;;9.83;55.86
8366;BME280;4220;42.502;24.188;2023-02-19T05:45:20;95556.38;;;9.84;55.52
8366;BME280;4220;42.502;24.188;2023-02-19T05:47:48;95565.13;;;9.92;55.31
8366;BME280;4220;42.502;24.188;2023-02-19T05:50:15;95561.25;;;9.94;55.41
8366;BME280;4220;42.502;24.188;2023-02-19T05:52:41;95561.63;;;9.98;55.21
8366;BME280;4220;42.502;24.188;2023-02-19T05:55:09;95570.41;;;9.98;55.33
8366;BME280;4220;42.502;24.188;2023-02-19T05:57:39;95579.97;;;10.06;54.69
8366;BME280;4220;42.502;24.188;2023-02-19T06:00:06;95588.97;;;10.05;55.29
8366;BME280;4220;42.502;24.188;2023-02-19T06:02:35;95586.28;;;9.98;54.89
8366;BME280;4220;42.502;24.188;2023-02-19T06:05:02;95589.75;;;9.99;55.57
8366;BME280;4220;42.502;24.188;2023-02-19T06:07:29;95595.88;;;10.06;55.04
8366;BME280;4220;42.502;24.188;2023-02-19T06:09:56;95594.66;;;10.15;54.95
8366;BME280;4220;42.502;24.188;2023-02-19T06:12:23;95603.63;;;10.20;54.85
8366;BME280;4220;42.502;24.188;2023-02-19T06:14:50;95611.38;;;10.22;54.82
8366;BME280;4220;42.502;24.188;2023-02-19T06:17:17;95586.91;;;10.20;55.05
8366;BME280;4220;42.502;24.188;2023-02-19T06:19:45;95597.09;;;10.23;54.49
8366;BME280;4220;42.502;24.188;2023-02-19T06:22:13;95606.66;;;10.30;54.83
8366;BME280;4220;42.502;24.188;2023-02-19T06:24:39;95563.66;;;10.09;54.57
8366;BME280;4220;42.502;24.188;2023-02-19T06:27:06;95599.94;;;10.41;54.22
8366;BME280;4220;42.502;24.188;2023-02-19T06:29:34;95611.75;;;10.45;54.57
8366;BME280;4220;42.502;24.188;2023-02-19T06:32:02;95616.63;;;10.48;54.64
8366;BME280;4220;42.502;24.188;2023-02-19T06:34:29;95615.78;;;10.54;54.31
8366;BME280;4220;42.502;24.188;2023-02-19T06:36:58;95606.41;;;10.58;53.53
8366;BME280;4220;42.502;24.188;2023-02-19T06:39:25;95628.38;;;10.72;53.31
8366;BME280;4220;42.502;24.188;2023-02-19T06:41:54;95580.72;;;10.52;53.84
8366;BME280;4220;42.502;24.188;2023-02-19T06:44:21;95612.25;;;10.80;53.34
8366;BME280;4220;42.502;24.188;2023-02-19T06:46:48;95582.13;;;10.55;52.98
8366;BME280;4220;42.502;24.188;2023-02-19T06:49:14;95639.38;;;10.88;53.17
8366;BME280;4220;42.502;24.188;2023-02-19T06:51:42;95618.94;;;10.89;53.43
8366;BME280;4220;42.502;24.188;2023-02-19T06:54:10;95628.31;;;10.91;52.84
8366;BME280;4220;42.502;24.188;2023-02-19T06:56:38;95625.03;;;11.02;52.47
8366;BME280;4220;42.502;24.188;2023-02-19T06:59:07;95639.69;;;11.11;52.39
8366;BME280;4220;42.502;24.188;2023-02-19T07:01:35;95585.88;;;10.91;52.48
8366;BME280;4220;42.502;24.188;2023-02-19T07:04:03;95626.59;;;11.16;52.66
8366;BME280;4220;42.502;24.188;2023-02-19T07:06:30;95646.56;;;11.26;51.86
8366;BME280;4220;42.502;24.188;2023-02-19T07:08:57;95641.25;;;11.26;52.12
8366;BME280;4220;42.502;24.188;2023-02-19T07:11:28;95643.72;;;11.21;51.85
8366;BME280;4220;42.502;24.188;2023-02-19T07:13:56;95657.78;;;11.28;51.81
8366;BME280;4220;42.502;24.188;2023-02-19T07:16:23;95643.88;;;11.32;51.94
8366;BME280;4220;42.502;24.188;2023-02-19T07:18:50;95642.47;;;11.30;51.89
8366;BME280;4220;42.502;24.188;2023-02-19T07:21:17;95635.50;;;11.29;51.99
8366;BME280;4220;42.502;24.188;2023-02-19T07:23:44;95657.94;;;11.33;52.15
8366;BME280;4220;42.502;24.188;2023-02-19T07:26:13;95638.59;;;11.26;52.21
8366;BME280;4220;42.502;24.188;2023-02-19T07:28:42;95648.97;;;11.34;52.36
8366;BME280;4220;42.502;24.188;2023-02-19T07:31:09;95652.03;;;11.31;52.38
8366;BME280;4220;42.502;24.188;2023-02-19T07:33:36;95601.91;;;11.09;52.07
8366;BME280;4220;42.502;24.188;2023-02-19T07:36:06;95647.94;;;11.35;51.92
8366;BME280;4220;42.502;24.188;2023-02-19T07:38:33;95651.63;;;11.34;52.44
8366;BME280;4220;42.502;24.188;2023-02-19T07:41:01;95648.13;;;11.40;52.12
8366;BME280;4220;42.502;24.188;2023-02-19T07:43:30;95657.06;;;11.45;51.50
8366;BME280;4220;42.502;24.188;2023-02-19T07:46:01;95645.97;;;11.55;51.51
8366;BME280;4220;42.502;24.188;2023-02-19T07:48:28;95638.00;;;11.61;51.73
8366;BME280;4220;42.502;24.188;2023-02-19T07:50:57;95641.22;;;11.70;51.62
8366;BME280;4220;42.502;24.188;2023-02-19T07:53:26;95640.56;;;11.74;51.30
8366;BME280;4220;42.502;24.188;2023-02-19T07:55:58;95617.38;;;11.88;51.22
8366;BME280;4220;42.502;24.188;2023-02-19T07:58:25;95623.19;;;12.03;50.80
8366;BME280;4220;42.502;24.188;2023-02-19T08:00:52;95600.63;;;12.12;50.37
8366;BME280;4220;42.502;24.188;2023-02-19T08:03:20;95611.56;;;12.22;50.78
8366;BME280;4220;42.502;24.188;2023-02-19T08:05:46;95609.00;;;12.34;50.42
8366;BME280;4220;42.502;24.188;2023-02-19T08:08:14;95601.56;;;12.42;49.96
8366;BME280;4220;42.502;24.188;2023-02-19T08:10:41;95600.06;;;12.46;50.08
8366;BME280;4220;42.502;24.188;2023-02-19T08:13:27;95604.59;;;12.46;50.00
8366;BME280;4220;42.502;24.188;2023-02-19T08:16:07;95594.03;;;12.58;50.11
8366;BME280;4220;42.502;24.188;2023-02-19T08:18:36;95582.34;;;12.59;49.91
8366;BME280;4220;42.502;24.188;2023-02-19T08:21:03;95597.78;;;12.68;49.45
8366;BME280;4220;42.502;24.188;2023-02-19T08:23:30;95597.44;;;12.65;49.30
8366;BME280;4220;42.502;24.188;2023-02-19T08:25:57;95601.81;;;12.77;49.30
8366;BME280;4220;42.502;24.188;2023-02-19T08:28:25;95618.19;;;12.92;48.89
8366;BME280;4220;42.502;24.188;2023-02-19T08:30:52;95621.19;;;12.84;49.13
8366;BME280;4220;42.502;24.188;2023-02-19T08:33:20;95525.53;;;12.35;49.30
8366;BME280;4220;42.502;24.188;2023-02-19T08:35:48;95605.50;;;12.94;49.42
8366;BME280;4220;42.502;24.188;2023-02-19T08:38:15;95607.03;;;13.02;49.43
8366;BME280;4220;42.502;24.188;2023-02-19T08:40:42;95616.81;;;13.08;48.72
8366;BME280;4220;42.502;24.188;2023-02-19T08:43:11;95551.88;;;12.91;48.94
8366;BME280;4220;42.502;24.188;2023-02-19T08:45:39;95592.81;;;13.26;48.42
8366;BME280;4220;42.502;24.188;2023-02-19T08:48:07;95615.53;;;13.29;48.75
8366;BME280;4220;42.502;24.188;2023-02-19T08:50:35;95599.69;;;13.34;48.55
8366;BME280;4220;42.502;24.188;2023-02-19T08:53:04;95601.44;;;13.40;48.39
8366;BME280;4220;42.502;24.188;2023-02-19T08:55:32;95608.41;;;13.41;48.49
8366;BME280;4220;42.502;24.188;2023-02-19T08:58:00;95596.34;;;13.38;48.24
8366;BME280;4220;42.502;24.188;2023-02-19T09:00:26;95588.84;;;13.47;47.89
8366;BME280;4220;42.502;24.188;2023-02-19T09:02:53;95600.69;;;13.51;47.81
8366;BME280;4220;42.502;24.188;2023-02-19T09:05:20;95611.13;;;13.64;47.45
8366;BME280;4220;42.502;24.188;2023-02-19T09:07:47;95587.41;;;13.74;47.25
8366;BME280;4220;42.502;24.188;2023-02-19T09:10:16;95573.50;;;13.72;47.28
8366;BME280;4220;42.502;24.188;2023-02-19T09:12:43;95596.22;;;13.74;47.11
8366;BME280;4220;42.502;24.188;2023-02-19T09:15:10;95563.66;;;13.72;47.38
8366;BME280;4220;42.502;24.188;2023-02-19T09:17:37;95569.56;;;13.74;46.95
8366;BME280;4220;42.502;24.188;2023-02-19T09:20:04;95589.06;;;13.87;47.03
8366;BME280;4220;42.502;24.188;2023-02-19T09:22:31;95597.53;;;13.95;46.13
8366;BME280;4220;42.502;24.188;2023-02-19T09:24:58;95575.63;;;14.05;46.28
8366;BME280;4220;42.502;24.188;2023-02-19T09:27:26;95577.50;;;14.16;45.80
8366;BME280;4220;42.502;24.188;2023-02-19T09:29:53;95581.47;;;14.25;45.50
8366;BME280;4220;42.502;24.188;2023-02-19T09:32:20;95584.69;;;14.27;45.78
8366;BME280;4220;42.502;24.188;2023-02-19T09:34:46;95569.06;;;14.30;45.80
8366;BME280;4220;42.502;24.188;2023-02-19T09:37:14;95535.25;;;14.13;45.84
8366;BME280;4220;42.502;24.188;2023-02-19T09:39:41;95556.53;;;14.31;45.75
8366;BME280;4220;42.502;24.188;2023-02-19T09:42:12;95548.41;;;14.37;45.75
8366;BME280;4220;42.502;24.188;2023-02-19T09:44:44;95558.13;;;14.55;45.67
8366;BME280;4220;42.502;24.188;2023-02-19T09:47:16;95568.22;;;14.53;45.60
8366;BME280;4220;42.502;24.188;2023-02-19T09:49:44;95560.69;;;14.62;45.74
8366;BME280;4220;42.502;24.188;2023-02-19T09:52:22;95565.53;;;14.65;45.93
8366;BME280;4220;42.502;24.188;2023-02-19T09:54:50;95552.19;;;14.76;46.08
8366;BME280;4220;42.502;24.188;2023-02-19T09:57:22;95569.47;;;14.85;45.88
8366;BME280;4220;42.502;24.188;2023-02-19T09:59:55;95535.41;;;14.92;46.22
8366;BME280;4220;42.502;24.188;2023-02-19T10:02:25;95547.22;;;14.96;45.68
8366;BME280;4220;42.502;24.188;2023-02-19T10:04:56;95543.09;;;15.17;45.72
8366;BME280;4220;42.502;24.188;2023-02-19T10:07:25;95531.53;;;15.28;45.28
8366;BME280;4220;42.502;24.188;2023-02-19T10:09:55;95532.53;;;15.39;45.02
8366;BME280;4220;42.502;24.188;2023-02-19T10:12:25;95529.13;;;15.55;45.18
8366;BME280;4220;42.502;24.188;2023-02-19T10:14:58;95529.16;;;15.72;45.20
8366;BME280;4220;42.502;24.188;2023-02-19T10:17:29;95526.38;;;15.83;44.74
8366;BME280;4220;42.502;24.188;2023-02-19T10:19:59;95510.25;;;15.61;44.71
8366;BME280;4220;42.502;24.188;2023-02-19T10:22:29;95520.38;;;15.76;44.80
8366;BME280;4220;42.502;24.188;2023-02-19T10:24:56;95509.44;;;15.78;44.97
8366;BME280;4220;42.502;24.188;2023-02-19T10:27:25;95510.00;;;15.63;44.99
8366;BME280;4220;42.502;24.188;2023-02-19T10:29:56;95510.81;;;15.47;45.12
8366;BME280;4220;42.502;24.188;2023-02-19T10:32:26;95504.91;;;15.45;45.18
8366;BME280;4220;42.502;24.188;2023-02-19T10:35:09;95489.50;;;15.52;45.26
8366;BME280;4220;42.502;24.188;2023-02-19T10:37:41;95489.44;;;15.63;44.92
8366;BME280;4220;42.502;24.188;2023-02-19T10:40:14;95459.47;;;15.45;44.46
8366;BME280;4220;42.502;24.188;2023-02-19T10:42:45;95480.75;;;15.73;44.64
8366;BME280;4220;42.502;24.188;2023-02-19T10:45:18;95475.72;;;15.93;43.65
8366;BME280;4220;42.502;24.188;2023-02-19T10:47:48;95476.13;;;16.02;43.68
8366;BME280;4220;42.502;24.188;2023-02-19T10:50:18;95466.63;;;16.11;43.49
8366;BME280;4220;42.502;24.188;2023-02-19T10:52:51;95457.91;;;16.20;42.99
8366;BME280;4220;42.502;24.188;2023-02-19T10:55:25;95445.41;;;16.04;42.87
8366;BME280;4220;42.502;24.188;2023-02-19T10:57:53;95446.19;;;16.21;42.76
8366;BME280;4220;42.502;24.188;2023-02-19T11:00:24;95431.34;;;16.14;42.35
8366;BME280;4220;42.502;24.188;2023-02-19T11:03:18;95434.03;;;16.35;41.67
8366;BME280;4220;42.502;24.188;2023-02-19T11:06:03;95434.03;;;16.35;41.70
8366;BME280;4220;42.502;24.188;2023-02-19T11:08:47;95426.34;;;16.61;41.58
8366;BME280;4220;42.502;24.188;2023-02-19T11:11:27;95421.50;;;16.58;41.62
8366;BME280;4220;42.502;24.188;2023-02-19T11:13:57;95413.19;;;16.59;41.58
8366;BME280;4220;42.502;24.188;2023-02-19T11:16:37;95405.72;;;16.88;40.49
8366;BME280;4220;42.502;24.188;2023-02-19T11:19:05;95404.03;;;16.77;40.49
8366;BME280;4220;42.502;24.188;2023-02-19T11:21:32;95405.00;;;16.66;40.94
8366;BME280;4220;42.502;24.188;2023-02-19T11:23:59;95394.31;;;16.71;40.95
8366;BME280;4220;42.502;24.188;2023-02-19T11:26:30;95405.03;;;16.97;40.58
8366;BME280;4220;42.502;24.188;2023-02-19T11:29:00;95379.66;;;17.05;40.53
8366;BME280;4220;42.502;24.188;2023-02-19T11:31:38;95390.31;;;17.27;40.44
8366;BME280;4220;42.502;24.188;2023-02-19T11:34:26;95392.38;;;17.51;39.65
8366;BME280;4220;42.502;24.188;2023-02-19T11:37:08;95387.44;;;17.70;39.73
8366;BME280;4220;42.502;24.188;2023-02-19T11:39:36;95378.34;;;17.71;39.07
8366;BME280;4220;42.502;24.188;2023-02-19T11:42:26;95385.31;;;17.40;39.43
8366;BME280;4220;42.502;24.188;2023-02-19T11:45:09;95377.97;;;17.57;39.62
8366;BME280;4220;42.502;24.188;2023-02-19T11:47:57;95382.16;;;17.48;39.17
8366;BME280;4220;42.502;24.188;2023-02-19T11:50:39;95376.34;;;17.25;40.27
8366;BME280;4220;42.502;24.188;2023-02-19T11:53:16;95367.00;;;17.32;40.00
8366;BME280;4220;42.502;24.188;2023-02-19T11:55:56;95358.84;;;17.49;39.80
8366;BME280;4220;42.502;24.188;2023-02-19T11:58:43;95353.91;;;17.73;39.26
8366;BME280;4220;42.502;24.188;2023-02-19T12:01:21;95356.94;;;17.81;38.74
8366;BME280;4220;42.502;24.188;2023-02-19T12:06:45;95349.16;;;17.85;39.12
8366;BME280;4220;42.502;24.188;2023-02-19T12:09:25;95343.59;;;18.01;38.15
8366;BME280;4220;42.502;24.188;2023-02-19T12:12:15;95342.31;;;18.14;37.64
8366;BME280;4220;42.502;24.188;2023-02-19T12:15:12;95337.66;;;18.46;37.17
8366;BME280;4220;42.502;24.188;2023-02-19T12:18:08;95327.22;;;18.60;36.86
8366;BME280;4220;42.502;24.188;2023-02-19T12:20:50;95309.75;;;18.52;36.93
8366;BME280;4220;42.502;24.188;2023-02-19T12:23:43;95305.72;;;18.50;36.77
8366;BME280;4220;42.502;24.188;2023-02-19T12:26:20;95305.75;;;18.90;36.36
8366;BME280;4220;42.502;24.188;2023-02-19T12:29:06;95310.63;;;19.03;36.02
8366;BME280;4220;42.502;24.188;2023-02-19T12:32:02;95303.91;;;19.11;35.82
8366;BME280;4220;42.502;24.188;2023-02-19T12:34:50;95301.22;;;19.11;35.88
8366;BME280;4220;42.502;24.188;2023-02-19T12:37:34;95259.25;;;19.25;35.84
8366;BME280;4220;42.502;24.188;2023-02-19T12:40:25;95280.97;;;19.74;34.54
8366;BME280;4220;42.502;24.188;2023-02-19T12:43:01;95273.91;;;19.88;34.15
8366;BME280;4220;42.502;24.188;2023-02-19T12:45:36;95270.69;;;19.86;34.14
8366;BME280;4220;42.502;24.188;2023-02-19T12:48:11;95265.66;;;19.69;34.11
8366;BME280;4220;42.502;24.188;2023-02-19T12:50:41;95268.66;;;19.47;34.23
8366;BME280;4220;42.502;24.188;2023-02-19T12:53:18;95260.28;;;19.64;34.58
8366;BME280;4220;42.502;24.188;2023-02-19T12:55:47;95262.75;;;19.40;34.41
8366;BME280;4220;42.502;24.188;2023-02-19T12:58:21;95258.16;;;19.36;34.74
8366;BME280;4220;42.502;24.188;2023-02-19T13:00:52;95254.41;;;19.27;34.77
8366;BME280;4220;42.502;24.188;2023-02-19T13:03:28;95251.69;;;19.52;34.60
8366;BME280;4220;42.502;24.188;2023-02-19T13:06:02;95238.72;;;19.69;34.39
8366;BME280;4220;42.502;24.188;2023-02-19T13:08:35;95244.56;;;19.96;33.88
8366;BME280;4220;42.502;24.188;2023-02-19T13:11:06;95250.22;;;19.95;33.47
8366;BME280;4220;42.502;24.188;2023-02-19T13:13:38;95237.81;;;19.99;33.46
8366;BME280;4220;42.502;24.188;2023-02-19T13:16:10;95208.50;;;19.92;33.49
8366;BME280;4220;42.502;24.188;2023-02-19T13:18:42;95220.88;;;19.93;33.74
8366;BME280;4220;42.502;24.188;2023-02-19T13:21:11;95213.16;;;20.31;33.04
8366;BME280;4220;42.502;24.188;2023-02-19T13:24:03;95217.19;;;20.33;33.24
8366;BME280;4220;42.502;24.188;2023-02-19T13:26:44;95203.56;;;20.58;32.82
8366;BME280;4220;42.502;24.188;2023-02-19T13:29:24;95197.31;;;20.97;32.26
8366;BME280;4220;42.502;24.188;2023-02-19T13:32:09;95194.19;;;21.13;32.44
8366;BME280;4220;42.502;24.188;2023-02-19T13:34:52;95160.72;;;21.19;31.68
8366;BME280;4220;42.502;24.188;2023-02-19T13:37:22;95192.41;;;21.80;31.27
8366;BME280;4220;42.502;24.188;2023-02-19T13:39:52;95190.28;;;21.77;30.96
8366;BME280;4220;42.502;24.188;2023-02-19T13:42:24;95183.78;;;21.78;31.28